Time;durP1;ratioP1;P1;durP2;ratioP2;P2;SDS_P1;SDS_P2;PMS_P1;PMS_P2;Temp;Humidity;BMP_temperature;BMP_pressure;BME280_temperature;BME280_humidity;BME280_pressure;Samples;Min_cycle;Max_cycle;Signal;HPM_P1;HPM_P2
2022/04/18 00:01:58;;;;;;;9.05;6.60;;;9.40;68.90;;;;;;4932037;29;20032;-66
2022/04/18 00:04:23;;;;;;;9.63;6.60;;;9.30;68.90;;;;;;4932887;29;20118;-66
2022/04/18 00:06:49;;;;;;;9.25;6.43;;;9.40;69.00;;;;;;4931390;29;20032;-67
2022/04/18 00:09:15;;;;;;;10.05;6.20;;;9.30;69.10;;;;;;4932037;29;20047;-67
2022/04/18 00:11:40;;;;;;;9.63;6.18;;;9.30;69.20;;;;;;4930984;29;20055;-67
2022/04/18 00:14:06;;;;;;;11.02;7.38;;;9.30;69.40;;;;;;4933145;29;20519;-68
2022/04/18 00:16:31;;;;;;;12.85;7.10;;;9.30;69.60;;;;;;4929515;29;20336;-67
2022/04/18 00:18:57;;;;;;;13.15;7.90;;;9.20;69.70;;;;;;4902058;29;20020;-67
2022/04/18 00:21:26;;;;;;;9.95;6.80;;;9.20;69.80;;;;;;4933779;29;20046;-66
2022/04/18 00:23:51;;;;;;;10.70;6.90;;;9.20;70.00;;;;;;4936686;29;20114;-67
2022/04/18 00:26:16;;;;;;;11.75;7.80;;;9.30;70.20;;;;;;4932622;29;20111;-66
2022/04/18 00:28:42;;;;;;;9.32;6.70;;;9.20;70.20;;;;;;4936847;29;20042;-66
2022/04/18 00:31:08;;;;;;;12.20;7.15;;;9.30;70.30;;;;;;4934653;29;20459;-66
2022/04/18 00:33:34;;;;;;;11.27;7.13;;;9.30;70.40;;;;;;4935946;29;20039;-67
2022/04/18 00:36:00;;;;;;;13.50;7.20;;;9.30;70.80;;;;;;4935270;29;20045;-67
2022/04/18 00:38:26;;;;;;;10.77;7.07;;;9.20;70.80;;;;;;4937117;29;20443;-66
2022/04/18 00:40:52;;;;;;;13.95;9.27;;;9.30;70.90;;;;;;4933976;29;20024;-66
2022/04/18 00:43:17;;;;;;;11.25;7.40;;;9.40;71.10;;;;;;4919701;29;20032;-67
2022/04/18 00:45:43;;;;;;;12.45;7.18;;;9.30;71.20;;;;;;4932098;29;20040;-67
2022/04/18 00:48:08;;;;;;;12.73;7.57;;;9.30;71.20;;;;;;4933732;29;20094;-67
2022/04/18 00:50:35;;;;;;;9.13;5.93;;;9.30;71.30;;;;;;4934946;29;20024;-67
2022/04/18 00:53:03;;;;;;;11.13;7.18;;;9.30;71.20;;;;;;4935327;29;20408;-66
2022/04/18 00:55:31;;;;;;;10.75;7.55;;;9.30;71.30;;;;;;4934930;29;20040;-67
2022/04/18 00:57:58;;;;;;;11.60;7.05;;;9.30;71.50;;;;;;4936471;29;20035;-68
2022/04/18 01:00:24;;;;;;;11.43;7.68;;;9.30;71.70;;;;;;4935332;29;20078;-68
2022/04/18 01:02:49;;;;;;;11.15;8.00;;;9.30;71.80;;;;;;4932446;29;20047;-67
2022/04/18 01:05:15;;;;;;;12.50;7.80;;;9.30;71.90;;;;;;4933700;29;20078;-68
2022/04/18 01:07:41;;;;;;;12.23;8.15;;;9.30;72.00;;;;;;4929554;29;20082;-67
2022/04/18 01:10:07;;;;;;;11.82;8.07;;;9.30;72.10;;;;;;4934686;29;20452;-67
2022/04/18 01:12:34;;;;;;;12.95;8.18;;;9.30;72.20;;;;;;4935400;29;20051;-68
2022/04/18 01:14:59;;;;;;;12.00;8.43;;;9.20;72.20;;;;;;4917640;29;20173;-67
2022/04/18 01:17:25;;;;;;;12.80;8.30;;;9.20;72.30;;;;;;4933487;29;20113;-67
2022/04/18 01:19:51;;;;;;;12.18;8.43;;;9.20;72.40;;;;;;4935008;29;20039;-67
2022/04/18 01:22:19;;;;;;;15.00;8.50;;;9.20;72.50;;;;;;4933775;29;20035;-67
2022/04/18 01:30:14;;;;;;;13.52;8.63;;;9.00;72.50;;;;;;4926272;29;19926;-68
2022/04/18 01:32:40;;;;;;;13.60;8.20;;;9.00;72.80;;;;;;4932781;29;20341;-68
2022/04/18 01:35:05;;;;;;;13.20;8.48;;;9.00;73.10;;;;;;4933652;29;20039;-67
2022/04/18 01:37:31;;;;;;;14.40;8.70;;;9.00;73.40;;;;;;4935543;29;20087;-66
2022/04/18 01:39:56;;;;;;;15.77;9.27;;;9.00;73.50;;;;;;4933823;29;20447;-67
2022/04/18 01:42:22;;;;;;;12.70;8.27;;;9.00;73.60;;;;;;4930809;29;20487;-68
2022/04/18 01:44:48;;;;;;;14.00;8.40;;;8.90;73.60;;;;;;4933799;29;20027;-68
2022/04/18 01:47:14;;;;;;;15.27;9.98;;;8.90;73.90;;;;;;4930268;29;20830;-67
2022/04/18 01:49:39;;;;;;;14.45;9.68;;;8.90;74.10;;;;;;4934613;29;20027;-67
2022/04/18 01:52:05;;;;;;;12.32;8.82;;;8.90;74.10;;;;;;4933693;29;20043;-66
2022/04/18 01:54:33;;;;;;;13.15;8.73;;;8.90;74.20;;;;;;4934595;29;20061;-67
2022/04/18 01:56:58;;;;;;;15.73;9.02;;;8.90;74.20;;;;;;4935283;29;20478;-67
2022/04/18 01:59:24;;;;;;;14.15;9.35;;;8.90;74.30;;;;;;4935050;29;20032;-67
2022/04/18 02:02:08;;;;;;;14.45;9.38;;;8.90;74.70;;;;;;4921738;29;20401;-67
2022/04/18 02:04:34;;;;;;;13.43;9.73;;;8.80;74.60;;;;;;4928320;29;20036;-66
2022/04/18 02:07:00;;;;;;;14.38;9.85;;;8.80;74.80;;;;;;4934998;29;20071;-66
2022/04/18 02:09:25;;;;;;;17.05;11.02;;;8.80;74.90;;;;;;4934186;29;20028;-68
2022/04/18 02:11:51;;;;;;;14.60;9.30;;;8.80;75.00;;;;;;4915893;29;20059;-66
2022/04/18 02:14:17;;;;;;;16.30;9.85;;;8.70;75.10;;;;;;4920825;29;20051;-66
2022/04/18 02:16:43;;;;;;;16.42;10.25;;;8.70;75.10;;;;;;4916726;29;20040;-66
2022/04/18 02:19:08;;;;;;;15.40;10.18;;;8.70;75.30;;;;;;4932213;29;20039;-66
2022/04/18 02:21:34;;;;;;;15.43;10.30;;;8.70;75.30;;;;;;4933174;29;20332;-67
2022/04/18 02:23:59;;;;;;;15.05;10.27;;;8.70;75.30;;;;;;4934574;29;20054;-66
2022/04/18 02:26:25;;;;;;;16.58;10.15;;;8.60;75.30;;;;;;4933301;29;20032;-67
2022/04/18 02:28:50;;;;;;;15.60;10.23;;;8.60;75.40;;;;;;4934704;29;20494;-67
2022/04/18 02:31:16;;;;;;;16.85;11.13;;;8.60;75.60;;;;;;4934004;29;20034;-66
2022/04/18 02:33:41;;;;;;;15.95;10.32;;;8.50;75.70;;;;;;4926810;29;20503;-67
2022/04/18 02:36:07;;;;;;;13.15;9.48;;;8.50;76.30;;;;;;4934007;29;20036;-66
2022/04/18 02:38:33;;;;;;;15.55;10.63;;;8.40;76.10;;;;;;4934422;29;20538;-66
2022/04/18 02:40:58;;;;;;;15.63;9.98;;;8.40;76.30;;;;;;4932135;29;20407;-66
2022/04/18 02:43:24;;;;;;;14.55;9.75;;;8.40;76.40;;;;;;4934685;29;20024;-66
2022/04/18 02:45:52;;;;;;;16.05;9.95;;;8.40;76.50;;;;;;4933234;29;20079;-66
2022/04/18 02:48:17;;;;;;;15.90;10.93;;;8.40;76.50;;;;;;4934661;29;20119;-66
2022/04/18 02:50:43;;;;;;;15.70;10.73;;;8.30;76.80;;;;;;4931705;29;20712;-67
2022/04/18 02:53:09;;;;;;;15.73;10.93;;;8.30;77.20;;;;;;4934098;29;20023;-67
2022/04/18 02:55:34;;;;;;;16.67;11.00;;;8.20;77.20;;;;;;4932563;29;20454;-68
2022/04/18 02:58:00;;;;;;;16.73;9.98;;;8.20;77.20;;;;;;4934534;29;20023;-67
2022/04/18 03:00:25;;;;;;;15.30;9.38;;;8.20;77.40;;;;;;4925813;29;20445;-66
2022/04/18 03:02:51;;;;;;;14.70;10.18;;;8.10;77.50;;;;;;4922054;29;20030;-67
2022/04/18 03:05:16;;;;;;;16.73;9.65;;;8.10;77.60;;;;;;4933023;29;20023;-67
2022/04/18 03:07:42;;;;;;;15.18;10.18;;;8.10;77.80;;;;;;4933974;29;20118;-66
2022/04/18 03:10:08;;;;;;;16.58;10.10;;;8.10;77.80;;;;;;4928687;29;20054;-67
2022/04/18 03:12:33;;;;;;;14.55;10.57;;;8.10;78.00;;;;;;4901621;29;20052;-67
2022/04/18 03:14:59;;;;;;;13.35;8.98;;;8.10;78.10;;;;;;4922181;29;20036;-66
2022/04/18 03:17:24;;;;;;;14.45;9.45;;;8.10;78.30;;;;;;4920577;29;20024;-65
2022/04/18 03:19:50;;;;;;;13.48;9.65;;;8.00;78.40;;;;;;4930698;29;20044;-67
2022/04/18 03:22:15;;;;;;;13.52;9.93;;;8.00;78.50;;;;;;4933658;29;20028;-66
2022/04/18 03:24:41;;;;;;;13.82;9.73;;;8.10;78.70;;;;;;4915653;29;20502;-67
2022/04/18 03:27:07;;;;;;;15.48;9.57;;;8.00;79.00;;;;;;4923537;29;20029;-67
2022/04/18 03:29:33;;;;;;;13.55;8.65;;;8.00;79.00;;;;;;4932919;29;20513;-67
2022/04/18 03:31:58;;;;;;;12.70;8.65;;;7.90;79.00;;;;;;4933577;29;20024;-67
2022/04/18 03:34:25;;;;;;;13.07;8.05;;;7.90;79.20;;;;;;4933690;29;20143;-68
2022/04/18 03:39:50;;;;;;;11.00;7.72;;;7.80;79.30;;;;;;4932888;29;20071;-67
2022/04/18 03:42:17;;;;;;;12.52;8.82;;;7.80;79.30;;;;;;4922921;29;20119;-67
2022/04/18 03:44:44;;;;;;;12.00;8.10;;;7.80;79.70;;;;;;4931675;29;20056;-67
2022/04/18 03:47:11;;;;;;;11.80;7.75;;;7.70;79.80;;;;;;4921604;29;20040;-67
2022/04/18 03:49:37;;;;;;;12.80;8.68;;;7.70;80.00;;;;;;4931506;29;20035;-67
2022/04/18 03:52:03;;;;;;;14.43;9.15;;;7.70;80.10;;;;;;4920631;29;20447;-67
2022/04/18 03:54:29;;;;;;;12.77;7.75;;;7.70;80.20;;;;;;4922855;29;20076;-67
2022/04/18 03:56:54;;;;;;;13.88;8.20;;;7.70;80.20;;;;;;4916351;29;20476;-66
2022/04/18 03:59:20;;;;;;;13.73;8.93;;;7.70;80.30;;;;;;4930709;29;20043;-67
2022/04/18 04:01:45;;;;;;;15.45;9.77;;;7.70;80.30;;;;;;4933654;29;20031;-67
2022/04/18 04:04:11;;;;;;;13.27;8.43;;;7.70;80.40;;;;;;4918130;29;20060;-67
2022/04/18 04:06:36;;;;;;;14.30;8.35;;;7.60;80.40;;;;;;4934553;29;20118;-67
2022/04/18 04:09:02;;;;;;;14.07;9.07;;;7.50;80.70;;;;;;4934235;29;20038;-67
2022/04/18 04:11:27;;;;;;;12.80;8.23;;;7.60;80.80;;;;;;4934068;29;20075;-67
2022/04/18 04:13:53;;;;;;;11.90;8.52;;;7.50;80.90;;;;;;4935621;29;20118;-67
2022/04/18 04:16:19;;;;;;;16.60;9.70;;;7.50;80.90;;;;;;4935791;29;20028;-67
2022/04/18 04:18:45;;;;;;;14.40;9.02;;;7.50;81.00;;;;;;4936403;29;20055;-67
2022/04/18 04:21:10;;;;;;;16.38;9.45;;;7.50;81.30;;;;;;4935938;29;20028;-66
2022/04/18 04:23:35;;;;;;;17.83;10.73;;;7.40;81.90;;;;;;4936611;29;20039;-66
2022/04/18 04:26:01;;;;;;;14.45;9.30;;;7.30;82.20;;;;;;4946021;29;20054;-66
2022/04/18 04:28:27;;;;;;;20.42;10.85;;;7.30;81.90;;;;;;4944701;29;20016;-66
2022/04/18 04:30:52;;;;;;;17.48;9.93;;;7.30;82.00;;;;;;4925010;29;20074;-66
2022/04/18 04:33:18;;;;;;;19.15;9.75;;;7.30;82.10;;;;;;4926635;29;20044;-66
2022/04/18 04:35:43;;;;;;;16.30;10.38;;;7.30;82.20;;;;;;4932836;29;20035;-69
2022/04/18 04:38:08;;;;;;;16.17;10.15;;;7.30;82.30;;;;;;4937014;29;20020;-67
2022/04/18 04:40:34;;;;;;;15.18;9.48;;;7.30;82.40;;;;;;4935692;29;20387;-68
2022/04/18 04:42:59;;;;;;;14.80;9.35;;;7.30;82.60;;;;;;4931518;29;20421;-71
2022/04/18 04:45:25;;;;;;;15.93;10.18;;;7.30;82.60;;;;;;4906008;29;20033;-69
2022/04/18 04:47:50;;;;;;;20.45;11.77;;;7.20;82.50;;;;;;4917654;29;20023;-68
2022/04/18 04:50:16;;;;;;;18.10;10.95;;;7.30;82.70;;;;;;4925190;29;20154;-67
2022/04/18 04:52:41;;;;;;;17.60;11.20;;;7.20;82.60;;;;;;4936326;29;20035;-67
2022/04/18 04:55:08;;;;;;;18.77;11.38;;;7.20;82.80;;;;;;4935219;29;20043;-67
2022/04/18 04:57:34;;;;;;;18.20;10.85;;;7.20;83.00;;;;;;4935346;29;20031;-71
2022/04/18 05:00:00;;;;;;;15.77;10.25;;;7.20;83.00;;;;;;4935043;29;20460;-70
2022/04/18 05:02:25;;;;;;;18.55;10.93;;;7.20;83.90;;;;;;4931728;29;20032;-69
2022/04/18 05:04:51;;;;;;;18.90;12.13;;;7.10;83.30;;;;;;4928781;29;20384;-69
2022/04/18 05:07:17;;;;;;;22.95;11.32;;;7.10;83.40;;;;;;4935893;29;20118;-69
2022/04/18 05:09:42;;;;;;;21.73;11.23;;;7.10;83.70;;;;;;4927299;29;20548;-69
2022/04/18 05:12:08;;;;;;;18.48;10.13;;;7.10;83.90;;;;;;4935468;29;20111;-69
2022/04/18 05:14:34;;;;;;;18.77;11.02;;;7.10;83.80;;;;;;4930768;29;20499;-69
2022/04/18 05:17:00;;;;;;;18.70;11.00;;;7.10;83.80;;;;;;4921900;29;20124;-70
2022/04/18 05:19:27;;;;;;;20.48;12.38;;;7.20;83.80;;;;;;4927713;29;20059;-69
2022/04/18 05:21:52;;;;;;;21.48;12.32;;;7.10;83.90;;;;;;4933730;29;20035;-69
2022/04/18 05:24:27;;;;;;;15.75;11.57;;;7.10;84.00;;;;;;4940009;29;20106;-69
2022/04/18 05:26:52;;;;;;;23.08;13.05;;;7.20;84.30;;;;;;4928534;29;20440;-70
2022/04/18 05:29:18;;;;;;;18.95;10.48;;;7.20;84.70;;;;;;4933942;29;20459;-70
2022/04/18 05:31:43;;;;;;;19.58;13.23;;;7.20;84.40;;;;;;4933833;29;20135;-71
2022/04/18 05:34:09;;;;;;;19.30;11.23;;;7.20;84.80;;;;;;4935783;29;20036;-71
2022/04/18 05:36:34;;;;;;;18.30;10.75;;;7.20;84.50;;;;;;4918664;29;20052;-70
2022/04/18 05:39:00;;;;;;;19.42;12.27;;;7.20;84.80;;;;;;4916856;29;20024;-71
2022/04/18 05:41:25;;;;;;;17.15;11.32;;;7.20;84.60;;;;;;4931052;29;20059;-70
2022/04/18 05:43:51;;;;;;;20.80;12.90;;;7.30;84.70;;;;;;4931672;29;20079;-71
2022/04/18 05:46:16;;;;;;;16.50;10.55;;;7.30;84.80;;;;;;4916398;29;20028;-69
2022/04/18 05:48:42;;;;;;;15.43;9.77;;;7.30;84.90;;;;;;4916504;29;20403;-70
2022/04/18 05:51:08;;;;;;;18.90;10.27;;;7.30;84.70;;;;;;4927980;29;20040;-70
2022/04/18 05:53:34;;;;;;;16.17;11.00;;;7.40;84.60;;;;;;4924527;29;20043;-70
2022/04/18 05:55:59;;;;;;;22.25;11.70;;;7.50;84.70;;;;;;4923441;29;20098;-72
2022/04/18 05:58:26;;;;;;;19.40;11.68;;;7.50;84.70;;;;;;4916346;29;20032;-73
2022/04/18 06:00:51;;;;;;;18.08;10.63;;;7.50;84.90;;;;;;4921730;29;20376;-70
2022/04/18 06:03:17;;;;;;;18.35;11.50;;;7.60;85.00;;;;;;4923339;29;20039;-71
2022/04/18 06:05:43;;;;;;;16.83;10.50;;;7.60;84.90;;;;;;4924581;29;20068;-69
2022/04/18 06:08:08;;;;;;;17.90;10.90;;;7.60;84.90;;;;;;4918440;29;20093;-69
2022/04/18 06:10:40;;;;;;;19.17;11.48;;;7.70;85.00;;;;;;4932670;29;20032;-70
2022/04/18 06:13:07;;;;;;;19.00;10.77;;;7.70;84.80;;;;;;4933012;29;20538;-69
2022/04/18 06:15:33;;;;;;;17.13;10.40;;;7.80;85.00;;;;;;4912165;29;20117;-68
2022/04/18 06:17:58;;;;;;;21.92;11.40;;;7.80;84.80;;;;;;4922193;29;20020;-68
2022/04/18 06:20:24;;;;;;;16.75;10.30;;;7.90;85.00;;;;;;4937905;29;20039;-70
2022/04/18 06:22:49;;;;;;;17.55;10.55;;;8.00;84.80;;;;;;4908654;29;20035;-67
2022/04/18 06:25:15;;;;;;;18.58;11.93;;;8.00;84.70;;;;;;4922269;29;20053;-69
2022/04/18 06:27:40;;;;;;;18.83;10.23;;;8.00;84.70;;;;;;4916132;29;20120;-66
2022/04/18 06:30:06;;;;;;;17.02;10.15;;;8.00;84.70;;;;;;4923090;29;20123;-67
2022/04/18 06:32:36;;;;;;;19.63;10.50;;;8.10;84.90;;;;;;4933570;29;20035;-67
2022/04/18 06:35:01;;;;;;;15.40;9.80;;;8.10;84.80;;;;;;4931845;29;20035;-68
2022/04/18 06:37:27;;;;;;;13.68;8.55;;;8.20;84.90;;;;;;4933978;29;20115;-67
2022/04/18 06:39:52;;;;;;;14.05;7.88;;;8.30;84.70;;;;;;4929713;29;20535;-68
2022/04/18 06:42:17;;;;;;;15.90;8.73;;;8.40;84.60;;;;;;4929652;29;20030;-68
2022/04/18 06:44:43;;;;;;;16.73;8.63;;;8.50;84.40;;;;;;4929904;29;20479;-68
2022/04/18 06:47:09;;;;;;;14.77;8.77;;;8.60;84.30;;;;;;4924798;29;20114;-68
2022/04/18 06:49:34;;;;;;;13.57;7.57;;;8.70;84.10;;;;;;4925575;29;20019;-68
2022/04/18 06:51:59;;;;;;;13.20;8.55;;;8.70;83.90;;;;;;4919194;29;20028;-68
2022/04/18 06:54:25;;;;;;;13.57;9.38;;;8.80;83.80;;;;;;4922087;29;20036;-67
2022/04/18 06:56:59;;;;;;;14.00;8.38;;;8.90;83.70;;;;;;4931406;29;20084;-67
2022/04/18 06:59:28;;;;;;;14.48;9.05;;;9.00;83.60;;;;;;4933179;29;20122;-68
2022/04/18 07:01:55;;;;;;;15.82;9.80;;;9.00;83.40;;;;;;4929702;29;20415;-69
2022/04/18 07:04:21;;;;;;;12.35;8.88;;;9.10;83.10;;;;;;4926647;29;20039;-68
2022/04/18 07:06:46;;;;;;;17.08;8.95;;;9.10;82.80;;;;;;4929921;29;20485;-68
2022/04/18 07:09:12;;;;;;;12.18;8.00;;;9.20;82.80;;;;;;4930066;29;20024;-68
2022/04/18 07:11:37;;;;;;;15.10;8.90;;;9.20;82.70;;;;;;4929470;29;20500;-69
2022/04/18 07:14:03;;;;;;;15.38;8.70;;;9.30;82.70;;;;;;4916655;29;20103;-68
2022/04/18 07:16:32;;;;;;;13.40;8.60;;;9.40;82.50;;;;;;4931319;29;20024;-68
2022/04/18 07:18:58;;;;;;;13.95;8.32;;;9.40;82.40;;;;;;4933354;29;20031;-68
2022/04/18 07:21:24;;;;;;;13.02;8.35;;;9.50;82.20;;;;;;4916279;29;20115;-68
2022/04/18 07:23:49;;;;;;;11.70;7.38;;;9.50;82.00;;;;;;4933016;29;20055;-68
2022/04/18 07:26:15;;;;;;;13.50;7.75;;;9.60;81.90;;;;;;4931879;29;20505;-68
2022/04/18 07:28:41;;;;;;;11.88;7.45;;;9.70;81.80;;;;;;4932003;29;20023;-68
2022/04/18 07:31:07;;;;;;;15.82;8.32;;;9.80;81.60;;;;;;4927440;29;20027;-69
2022/04/18 07:33:34;;;;;;;15.35;7.95;;;9.90;81.50;;;;;;4931881;29;20035;-69
2022/04/18 07:35:59;;;;;;;13.25;8.98;;;10.00;81.30;;;;;;4928546;29;20079;-69
2022/04/18 07:41:09;;;;;;;10.33;7.63;;;10.20;80.80;;;;;;4927169;29;20035;-69
2022/04/18 07:43:34;;;;;;;12.15;7.82;;;10.30;80.40;;;;;;4932917;29;20034;-69
2022/04/18 07:46:04;;;;;;;11.60;6.45;;;10.30;79.90;;;;;;4931748;29;20096;-69
2022/04/18 07:48:31;;;;;;;12.82;7.55;;;10.30;79.70;;;;;;4929080;29;20036;-68
2022/04/18 07:53:41;;;;;;;14.60;8.00;;;10.50;79.30;;;;;;4924686;29;20067;-68
2022/04/18 07:56:07;;;;;;;12.93;7.32;;;10.50;79.10;;;;;;4932112;29;20039;-69
2022/04/18 07:58:32;;;;;;;12.77;7.13;;;10.60;78.80;;;;;;4920255;29;20031;-68
2022/04/18 08:00:58;;;;;;;10.00;6.57;;;10.70;78.50;;;;;;4928961;29;20067;-68
2022/04/18 08:03:24;;;;;;;9.32;5.57;;;10.80;78.40;;;;;;4903145;29;20513;-68
2022/04/18 08:05:49;;;;;;;7.53;5.20;;;10.80;76.90;;;;;;4931836;29;20042;-69
2022/04/18 08:08:15;;;;;;;9.90;5.22;;;10.90;77.00;;;;;;4932714;29;20039;-69
2022/04/18 08:10:40;;;;;;;8.70;5.20;;;10.80;76.50;;;;;;4929258;29;20502;-68
2022/04/18 08:13:06;;;;;;;9.30;4.43;;;10.90;76.40;;;;;;4931634;29;20055;-69
2022/04/18 08:15:32;;;;;;;6.75;4.38;;;11.00;76.20;;;;;;4930392;29;20087;-69
2022/04/18 08:17:58;;;;;;;7.10;4.88;;;11.10;76.00;;;;;;4923841;29;20020;-69
2022/04/18 08:20:23;;;;;;;7.72;4.78;;;11.20;75.20;;;;;;4930940;29;20035;-69
2022/04/18 08:22:49;;;;;;;7.30;4.20;;;11.20;74.60;;;;;;4927595;29;20023;-69
2022/04/18 08:25:15;;;;;;;5.78;3.70;;;11.30;73.70;;;;;;4928768;29;20035;-69
2022/04/18 08:27:40;;;;;;;6.68;3.92;;;11.30;73.20;;;;;;4932275;29;20028;-68
2022/04/18 08:30:07;;;;;;;5.95;3.70;;;11.40;73.10;;;;;;4930681;29;20031;-69
2022/04/18 08:32:42;;;;;;;6.63;3.65;;;11.50;73.00;;;;;;4915156;29;20039;-69
2022/04/18 08:35:08;;;;;;;5.22;3.35;;;11.60;72.90;;;;;;4914790;29;20117;-69
2022/04/18 08:37:34;;;;;;;6.95;3.67;;;11.70;73.50;;;;;;4929976;29;20035;-69
2022/04/18 08:40:01;;;;;;;5.60;3.45;;;11.80;72.60;;;;;;4916550;29;20448;-68
2022/04/18 08:42:32;;;;;;;6.10;3.42;;;11.90;71.60;;;;;;4920744;29;20399;-68
2022/04/18 08:44:58;;;;;;;4.32;2.80;;;12.00;71.30;;;;;;4916286;29;20036;-69
2022/04/18 08:52:53;;;;;;;4.57;3.00;;;12.30;69.90;;;;;;4921410;29;20486;-68
2022/04/18 08:55:20;;;;;;;6.90;3.85;;;12.40;69.10;;;;;;4927769;29;20054;-67
2022/04/18 08:57:45;;;;;;;6.38;3.97;;;12.40;69.00;;;;;;4928923;29;20059;-68
2022/04/18 09:00:12;;;;;;;6.65;3.03;;;12.50;68.40;;;;;;4928559;29;20031;-69
2022/04/18 09:02:38;;;;;;;5.32;2.70;;;12.60;68.20;;;;;;4924626;29;20055;-69
2022/04/18 09:05:08;;;;;;;4.70;3.05;;;12.70;68.10;;;;;;4919034;29;20027;-68
2022/04/18 09:07:33;;;;;;;6.18;3.25;;;12.70;67.80;;;;;;4926796;29;20034;-69
2022/04/18 09:09:59;;;;;;;5.25;3.65;;;12.80;67.20;;;;;;4934455;29;20027;-69
2022/04/18 09:12:28;;;;;;;5.07;3.58;;;12.80;68.00;;;;;;4934425;29;20553;-69
2022/04/18 09:14:53;;;;;;;9.93;4.97;;;12.90;67.70;;;;;;4933898;29;20125;-69
2022/04/18 09:17:29;;;;;;;10.85;5.43;;;13.00;67.30;;;;;;4932200;29;20415;-69
2022/04/18 09:20:08;;;;;;;5.53;3.45;;;13.10;66.20;;;;;;4939623;29;20039;-69
2022/04/18 09:22:48;;;;;;;5.53;3.35;;;13.20;65.20;;;;;;4934169;29;20027;-69
2022/04/18 09:25:19;;;;;;;5.07;3.15;;;13.20;63.40;;;;;;4917185;29;20076;-68
2022/04/18 09:27:56;;;;;;;3.97;2.70;;;13.20;63.30;;;;;;4921782;29;20103;-69
2022/04/18 09:30:23;;;;;;;4.53;2.97;;;13.20;64.00;;;;;;4936290;29;20042;-69
2022/04/18 09:33:09;;;;;;;4.45;2.80;;;13.30;63.00;;;;;;4935813;29;20106;-70
2022/04/18 09:35:35;;;;;;;4.72;2.80;;;13.30;61.90;;;;;;4920570;29;20035;-70
2022/04/18 09:38:05;;;;;;;6.32;3.03;;;13.30;61.50;;;;;;4933427;29;20083;-70
2022/04/18 09:40:36;;;;;;;5.13;2.90;;;13.30;61.70;;;;;;4931697;29;20122;-70
2022/04/18 09:43:01;;;;;;;4.93;3.05;;;13.30;61.40;;;;;;4920592;29;20031;-69
2022/04/18 09:45:27;;;;;;;4.93;3.17;;;13.40;61.50;;;;;;4952428;29;20023;-68
2022/04/18 09:47:58;;;;;;;4.57;2.90;;;13.40;61.70;;;;;;4935837;29;20035;-69
2022/04/18 09:53:23;;;;;;;8.25;3.60;;;13.40;60.90;;;;;;4932592;29;20054;-69
2022/04/18 09:55:53;;;;;;;4.63;2.90;;;13.50;61.00;;;;;;4933517;29;20047;-69
2022/04/18 09:58:18;;;;;;;4.90;2.83;;;13.50;61.30;;;;;;4935085;29;20028;-68
2022/04/18 10:00:44;;;;;;;6.13;3.53;;;13.50;61.10;;;;;;4934238;29;20033;-69
2022/04/18 10:03:10;;;;;;;5.32;3.13;;;13.60;61.70;;;;;;4917769;29;20111;-69
2022/04/18 10:05:36;;;;;;;5.22;3.05;;;13.70;61.90;;;;;;4934339;29;20031;-69
2022/04/18 10:08:05;;;;;;;5.30;3.50;;;13.80;61.80;;;;;;4935407;29;20035;-69
2022/04/18 10:10:32;;;;;;;4.95;3.00;;;14.00;61.80;;;;;;4934243;29;20043;-68
2022/04/18 10:12:58;;;;;;;5.05;2.92;;;14.10;61.50;;;;;;4916829;29;20052;-69
2022/04/18 10:15:26;;;;;;;4.88;3.13;;;14.10;61.40;;;;;;4934459;29;20044;-69
2022/04/18 10:17:52;;;;;;;6.38;2.70;;;14.20;60.30;;;;;;4933321;29;20067;-69
2022/04/18 10:20:48;;;;;;;4.38;2.35;;;14.30;60.50;;;;;;4915928;29;20092;-69
2022/04/18 10:23:26;;;;;;;;;;;14.30;59.20;;;;;;4933677;29;20035;-69
2022/04/18 10:26:22;;;;;;;5.57;2.90;;;14.30;58.10;;;;;;4914279;29;19927;-69
2022/04/18 10:28:50;;;;;;;5.85;2.60;;;14.20;58.00;;;;;;4923425;29;20034;-69
2022/04/18 10:31:20;;;;;;;6.07;3.35;;;14.20;57.70;;;;;;4930370;29;20104;-68
2022/04/18 10:33:46;;;;;;;4.38;2.55;;;14.20;58.10;;;;;;4932845;29;20152;-69
2022/04/18 10:36:12;;;;;;;3.63;2.40;;;14.30;58.50;;;;;;4934013;29;20519;-71
2022/04/18 10:38:41;;;;;;;2.78;1.83;;;14.30;58.10;;;;;;4931279;29;20491;-69
2022/04/18 10:41:33;;;;;;;3.55;1.92;;;14.40;57.20;;;;;;4926416;29;20122;-68
2022/04/18 10:44:03;;;;;;;2.63;1.92;;;14.40;55.80;;;;;;4931110;29;20566;-69
2022/04/18 10:46:29;;;;;;;3.63;2.00;;;14.40;56.60;;;;;;4913981;29;20043;-69
2022/04/18 10:49:15;;;;;;;3.63;2.17;;;14.40;56.20;;;;;;4924392;29;20479;-69
2022/04/18 10:51:43;;;;;;;3.13;1.50;;;14.40;54.90;;;;;;4925580;29;20047;-69
2022/04/18 10:54:15;;;;;;;3.53;1.52;;;14.50;55.90;;;;;;4929270;29;20031;-69
2022/04/18 10:57:01;;;;;;;2.50;1.52;;;14.50;54.90;;;;;;4922428;29;20172;-68
2022/04/18 10:59:29;;;;;;;2.45;1.42;;;14.50;54.50;;;;;;4921368;29;20054;-69
2022/04/18 11:01:57;;;;;;;2.90;1.70;;;14.50;54.70;;;;;;4930603;29;20040;-68
2022/04/18 11:04:24;;;;;;;2.53;1.40;;;14.50;54.80;;;;;;4930093;29;20032;-68
2022/04/18 11:06:52;;;;;;;2.65;1.75;;;14.60;54.50;;;;;;4931661;29;20051;-68
2022/04/18 11:09:21;;;;;;;2.88;1.88;;;14.70;54.50;;;;;;4929904;29;20523;-69
2022/04/18 11:12:05;;;;;;;5.35;1.80;;;14.70;54.50;;;;;;4919597;29;20126;-69
2022/04/18 11:14:41;;;;;;;2.20;1.52;;;14.70;54.30;;;;;;4924199;29;20051;-69
2022/04/18 11:17:10;;;;;;;2.63;1.70;;;14.70;53.90;;;;;;4927783;29;20123;-69
2022/04/18 11:19:38;;;;;;;2.70;1.73;;;14.70;54.00;;;;;;4933635;29;20035;-69
2022/04/18 11:22:18;;;;;;;2.67;1.52;;;14.70;54.40;;;;;;4927681;29;20059;-69
2022/04/18 11:24:53;;;;;;;3.10;1.80;;;14.80;54.80;;;;;;4919575;29;20027;-69
2022/04/18 11:27:20;;;;;;;2.90;1.63;;;14.80;54.20;;;;;;4932904;29;20444;-69
2022/04/18 11:29:51;;;;;;;2.53;1.77;;;14.80;53.50;;;;;;4931117;29;20090;-68
2022/04/18 11:32:19;;;;;;;2.25;1.67;;;14.90;53.30;;;;;;4928761;29;20032;-68
2022/04/18 11:34:49;;;;;;;2.70;1.75;;;14.90;53.50;;;;;;4930985;29;20083;-69
2022/04/18 11:37:35;;;;;;;2.95;1.77;;;15.00;53.40;;;;;;4910319;29;20355;-66
2022/04/18 11:40:05;;;;;;;2.58;1.65;;;15.00;53.40;;;;;;4932965;29;20055;-69
2022/04/18 11:42:32;;;;;;;2.85;1.83;;;15.00;52.80;;;;;;4915731;29;20032;-69
2022/04/18 11:45:00;;;;;;;4.28;2.38;;;15.00;53.40;;;;;;4933520;29;20401;-70
2022/04/18 11:47:33;;;;;;;3.45;1.80;;;15.00;53.20;;;;;;4932036;29;20555;-68
2022/04/18 11:50:01;;;;;;;4.18;2.05;;;15.00;53.30;;;;;;4930297;29;20637;-69
2022/04/18 11:52:29;;;;;;;3.88;2.30;;;15.00;53.50;;;;;;4930169;29;20130;-69
2022/04/18 11:55:15;;;;;;;4.00;2.20;;;15.00;53.40;;;;;;4928549;29;20518;-68
2022/04/18 11:57:45;;;;;;;3.63;2.33;;;15.00;53.50;;;;;;4915042;29;20020;-68
2022/04/18 12:06:44;;;;;;;3.20;2.30;;;15.00;53.70;;;;;;4919908;29;20114;-69
2022/04/18 12:08:37;;;;;;;3.47;1.88;;;15.30;53.90;;;;;;4914367;29;20559;-68
2022/04/18 12:11:03;;;;;;;4.47;2.67;;;15.30;54.00;;;;;;4929155;29;20119;-69
2022/04/18 12:13:29;;;;;;;8.05;4.85;;;15.40;53.60;;;;;;4934588;29;20034;-68
2022/04/18 12:15:54;;;;;;;5.68;3.58;;;15.30;53.80;;;;;;4919763;29;20032;-69
2022/04/18 12:18:20;;;;;;;4.57;2.45;;;15.30;53.70;;;;;;4937379;29;20468;-68
2022/04/18 12:20:50;;;;;;;3.72;2.10;;;15.40;54.00;;;;;;4937101;29;20815;-68
2022/04/18 12:23:20;;;;;;;2.90;2.25;;;15.50;54.00;;;;;;4936855;29;20032;-68
2022/04/18 12:25:48;;;;;;;3.83;2.40;;;15.50;54.00;;;;;;4936860;29;20035;-68
2022/04/18 12:28:15;;;;;;;3.60;1.95;;;15.60;53.70;;;;;;4936676;29;20391;-68
2022/04/18 12:30:41;;;;;;;2.70;1.95;;;15.60;53.50;;;;;;4936242;29;20035;-68
2022/04/18 12:33:19;;;;;;;2.63;1.60;;;15.70;53.50;;;;;;4936425;29;20035;-68
2022/04/18 12:35:47;;;;;;;3.17;1.70;;;15.80;53.40;;;;;;4936360;29;20522;-68
2022/04/18 12:38:13;;;;;;;2.92;1.85;;;15.80;52.70;;;;;;4919539;29;20028;-69
2022/04/18 12:40:43;;;;;;;2.47;1.80;;;15.70;52.30;;;;;;4936415;29;20054;-69
2022/04/18 12:43:09;;;;;;;2.70;1.90;;;15.80;52.30;;;;;;4935240;29;20043;-68
2022/04/18 12:46:08;;;;;;;2.92;1.48;;;15.80;51.70;;;;;;4935818;29;20387;-68
2022/04/18 12:48:36;;;;;;;3.28;1.45;;;15.80;51.70;;;;;;4936229;29;20047;-68
2022/04/18 12:51:04;;;;;;;2.03;1.27;;;15.80;51.80;;;;;;4935509;29;20046;-69
2022/04/18 12:53:49;;;;;;;2.50;1.70;;;15.90;51.90;;;;;;4935856;29;20027;-68
2022/04/18 12:56:20;;;;;;;2.53;1.60;;;16.00;51.40;;;;;;4936249;29;20051;-69
2022/04/18 12:58:58;;;;;;;3.85;1.80;;;16.00;51.50;;;;;;4935003;29;20040;-68
2022/04/18 13:01:25;;;;;;;4.25;1.90;;;16.10;51.20;;;;;;4933500;29;20053;-67
2022/04/18 13:03:53;;;;;;;3.10;1.98;;;16.20;51.10;;;;;;4934623;29;20082;-67
2022/04/18 13:06:30;;;;;;;5.25;1.92;;;16.20;50.60;;;;;;4928981;29;20032;-66
2022/04/18 13:09:09;;;;;;;3.33;1.75;;;16.20;50.20;;;;;;4935880;29;20039;-67
2022/04/18 13:11:39;;;;;;;3.20;1.85;;;16.20;50.20;;;;;;4932705;29;20039;-68
2022/04/18 13:14:05;;;;;;;2.90;1.50;;;16.20;50.30;;;;;;4933929;29;20058;-68
2022/04/18 13:16:31;;;;;;;2.03;1.00;;;16.20;50.00;;;;;;4931859;29;20032;-68